createdAt,value
2019-03-27T00:09:52.988Z,16.10
2019-03-27T00:19:58.507Z,14.50
2019-03-27T00:30:06.018Z,12.87
2019-03-27T00:40:12.509Z,11.37
2019-03-27T00:50:18.144Z,10.47
2019-03-27T01:00:47.450Z,11.60
2019-03-27T01:10:53.049Z,13.23
2019-03-27T01:20:58.626Z,11.20
2019-03-27T01:31:04.237Z,13.20
2019-03-27T01:41:09.785Z,14.13
2019-03-27T01:51:15.317Z,15.80
2019-03-27T02:01:20.927Z,12.93
2019-03-27T02:11:27.981Z,15.50
2019-03-27T02:21:33.605Z,17.33
2019-03-27T02:31:39.250Z,13.80
2019-03-27T02:41:44.879Z,13.53
2019-03-27T02:51:50.498Z,14.07
2019-03-27T03:01:56.005Z,11.83
2019-03-27T03:12:01.679Z,13.53
2019-03-27T03:22:07.320Z,17.13
2019-03-27T03:32:12.850Z,15.70
2019-03-27T03:42:18.582Z,13.30
2019-03-27T03:52:25.518Z,13.63
2019-03-27T04:02:34.033Z,15.37
2019-03-27T04:23:28.934Z,28.30
2019-03-27T04:33:34.559Z,24.30
2019-03-27T04:43:40.326Z,27.10
2019-03-27T04:53:47.067Z,25.80
2019-03-27T05:03:53.514Z,27.63
2019-03-27T05:14:00.266Z,26.23
2019-03-27T05:24:07.703Z,35.83
2019-03-27T05:34:13.341Z,37.53
2019-03-27T05:44:18.919Z,36.47
2019-03-27T05:54:24.620Z,31.37
2019-03-27T06:04:30.251Z,21.37
2019-03-27T06:14:36.216Z,18.80
2019-03-27T06:24:44.766Z,17.83
2019-03-27T06:34:50.422Z,15.53
2019-03-27T06:44:56.083Z,18.70
2019-03-27T06:55:01.744Z,18.97
2019-03-27T07:05:08.759Z,12.30
2019-03-27T07:15:14.402Z,15.40
2019-03-27T07:25:20.018Z,17.23
2019-03-27T07:35:25.650Z,18.83
2019-03-27T07:45:31.301Z,15.10
2019-03-27T07:55:38.698Z,13.60
2019-03-27T08:05:44.677Z,8.20
2019-03-27T08:15:50.443Z,7.63
2019-03-27T08:25:56.234Z,5.83
2019-03-27T08:36:02.059Z,7.13
2019-03-27T08:46:07.883Z,5.23
2019-03-27T08:56:13.558Z,5.90
2019-03-27T09:06:32.817Z,4.70
2019-03-27T09:16:26.140Z,5.23
2019-03-27T09:26:36.039Z,5.23
2019-03-27T09:36:42.634Z,5.00
2019-03-27T09:46:49.179Z,4.87
2019-03-27T09:56:54.716Z,4.77
2019-03-27T10:07:00.237Z,5.17
2019-03-27T10:17:06.695Z,5.73
2019-03-27T10:27:13.380Z,5.07
2019-03-27T10:37:19.675Z,4.10
2019-03-27T10:47:30.517Z,5.07
2019-03-27T10:57:41.427Z,5.67
2019-03-27T11:07:51.881Z,6.10
2019-03-27T11:17:58.139Z,5.53
2019-03-27T11:28:08.981Z,6.23
2019-03-27T11:38:16.274Z,6.83
2019-03-27T11:48:24.375Z,7.00
2019-03-27T11:58:29.976Z,6.40
2019-03-27T12:08:35.598Z,7.00
2019-03-27T12:18:42.658Z,5.80
2019-03-27T12:28:48.228Z,6.97
2019-03-27T12:38:53.741Z,6.97
2019-03-27T12:48:59.254Z,7.83
2019-03-27T12:59:04.882Z,7.43
2019-03-27T13:09:10.389Z,5.67
2019-03-27T13:19:17.034Z,4.43
2019-03-27T13:29:22.814Z,4.47
2019-03-27T13:39:29.877Z,4.53
2019-03-27T13:49:35.465Z,4.33
2019-03-27T13:59:43.079Z,4.00
2019-03-27T14:09:50.744Z,3.17
2019-03-27T14:19:56.427Z,3.87
2019-03-27T14:30:01.940Z,3.43
2019-03-27T14:40:09.883Z,3.97
2019-03-27T14:50:15.682Z,5.40
2019-03-27T15:00:21.405Z,5.73
2019-03-27T15:10:27.168Z,4.73
2019-03-27T15:20:32.785Z,5.33
2019-03-27T15:30:38.425Z,5.37
2019-03-27T15:40:47.345Z,5.63
2019-03-27T15:50:58.747Z,3.70
2019-03-27T16:01:02.279Z,4.13
2019-03-27T16:11:08.235Z,4.83
2019-03-27T16:21:14.523Z,6.20
2019-03-27T16:31:20.495Z,5.90
2019-03-27T16:41:26.777Z,7.43
2019-03-27T16:51:34.097Z,8.87
2019-03-27T17:01:39.965Z,11.83
2019-03-27T17:11:46.071Z,10.93
2019-03-27T17:21:52.036Z,13.50
2019-03-27T17:31:58.045Z,13.73
2019-03-27T17:42:04.044Z,15.30
2019-03-27T17:52:10.063Z,19.80
2019-03-27T18:02:16.015Z,25.13
2019-03-27T18:12:23.439Z,32.53
2019-03-27T18:22:29.571Z,50.37
2019-03-27T18:32:37.127Z,58.33
2019-03-27T18:42:46.999Z,56.33
2019-03-27T18:52:53.160Z,64.47
2019-03-27T19:03:00.600Z,79.10
2019-03-27T19:13:06.733Z,98.03
2019-03-27T19:23:13.118Z,86.30
2019-03-27T19:33:19.160Z,119.43
2019-03-27T19:43:27.589Z,111.73
2019-03-27T19:53:33.400Z,95.53
2019-03-27T20:03:41.490Z,59.53
2019-03-27T20:13:47.513Z,50.37
2019-03-27T20:23:57.206Z,42.67
2019-03-27T20:34:03.197Z,39.80
2019-03-27T20:44:09.238Z,34.70
2019-03-27T20:54:15.402Z,30.37
2019-03-27T21:04:23.616Z,35.13
2019-03-27T21:14:29.700Z,30.43
2019-03-27T21:24:35.642Z,26.67
2019-03-27T21:34:41.601Z,33.53
2019-03-27T21:44:47.194Z,35.40
2019-03-27T21:54:52.818Z,34.97
2019-03-27T22:04:58.376Z,39.73
2019-03-27T22:15:04.899Z,50.50
2019-03-27T22:25:10.551Z,42.00
2019-03-27T22:35:16.130Z,45.77
2019-03-27T22:45:21.739Z,51.67
2019-03-27T22:55:27.278Z,54.80
2019-03-27T23:05:32.893Z,59.77
2019-03-27T23:15:38.405Z,73.87
2019-03-27T23:25:44.041Z,67.40
2019-03-27T23:35:49.772Z,83.60
2019-03-27T23:45:56.624Z,79.83
2019-03-27T23:56:15.529Z,75.50
